sensor_id;sensor_type;location;lat;lon;timestamp;P1;durP1;ratioP1;P2;durP2;ratioP2
4547;SDS011;2286;51.570;7.090;2023-12-04T00:00:35;20.20;;;16.75;;
4547;SDS011;2286;51.570;7.090;2023-12-04T00:03:01;22.38;;;16.35;;
4547;SDS011;2286;51.570;7.090;2023-12-04T00:05:28;21.25;;;16.15;;
4547;SDS011;2286;51.570;7.090;2023-12-04T00:07:55;21.20;;;15.88;;
4547;SDS011;2286;51.570;7.090;2023-12-04T00:10:22;20.63;;;16.92;;
4547;SDS011;2286;51.570;7.090;2023-12-04T00:12:49;19.38;;;15.48;;
4547;SDS011;2286;51.570;7.090;2023-12-04T00:15:16;19.27;;;15.15;;
4547;SDS011;2286;51.570;7.090;2023-12-04T00:17:46;19.98;;;15.23;;
4547;SDS011;2286;51.570;7.090;2023-12-04T00:20:13;19.45;;;14.88;;
4547;SDS011;2286;51.570;7.090;2023-12-04T00:22:40;23.88;;;18.10;;
4547;SDS011;2286;51.570;7.090;2023-12-04T00:25:07;23.27;;;16.10;;
4547;SDS011;2286;51.570;7.090;2023-12-04T00:27:34;20.33;;;16.35;;
4547;SDS011;2286;51.570;7.090;2023-12-04T00:30:01;19.70;;;15.07;;
4547;SDS011;2286;51.570;7.090;2023-12-04T00:32:29;20.23;;;16.75;;
4547;SDS011;2286;51.570;7.090;2023-12-04T00:34:57;21.55;;;15.68;;
4547;SDS011;2286;51.570;7.090;2023-12-04T00:37:25;21.42;;;16.75;;
4547;SDS011;2286;51.570;7.090;2023-12-04T00:39:53;20.70;;;16.70;;
4547;SDS011;2286;51.570;7.090;2023-12-04T00:42:20;20.02;;;14.77;;
4547;SDS011;2286;51.570;7.090;2023-12-04T00:44:47;22.05;;;16.73;;
4547;SDS011;2286;51.570;7.090;2023-12-04T00:47:13;20.05;;;16.17;;
4547;SDS011;2286;51.570;7.090;2023-12-04T00:49:40;22.52;;;17.02;;
4547;SDS011;2286;51.570;7.090;2023-12-04T00:52:09;20.98;;;15.27;;
4547;SDS011;2286;51.570;7.090;2023-12-04T00:54:38;19.05;;;15.15;;
4547;SDS011;2286;51.570;7.090;2023-12-04T00:57:05;20.08;;;15.70;;
4547;SDS011;2286;51.570;7.090;2023-12-04T00:59:32;18.88;;;14.80;;
4547;SDS011;2286;51.570;7.090;2023-12-04T01:01:59;19.75;;;15.85;;
4547;SDS011;2286;51.570;7.090;2023-12-04T01:04:26;20.48;;;16.20;;
4547;SDS011;2286;51.570;7.090;2023-12-04T01:06:53;18.70;;;14.80;;
4547;SDS011;2286;51.570;7.090;2023-12-04T01:09:21;18.75;;;14.88;;
4547;SDS011;2286;51.570;7.090;2023-12-04T01:11:49;19.73;;;16.23;;
4547;SDS011;2286;51.570;7.090;2023-12-04T01:14:16;19.20;;;15.10;;
4547;SDS011;2286;51.570;7.090;2023-12-04T01:16:43;18.08;;;15.70;;
4547;SDS011;2286;51.570;7.090;2023-12-04T01:19:10;21.05;;;16.70;;
4547;SDS011;2286;51.570;7.090;2023-12-04T01:21:36;24.63;;;17.00;;
4547;SDS011;2286;51.570;7.090;2023-12-04T01:24:03;23.50;;;17.45;;
4547;SDS011;2286;51.570;7.090;2023-12-04T01:26:32;20.80;;;16.38;;
4547;SDS011;2286;51.570;7.090;2023-12-04T01:28:59;20.58;;;16.90;;
4547;SDS011;2286;51.570;7.090;2023-12-04T01:31:25;17.92;;;15.93;;
4547;SDS011;2286;51.570;7.090;2023-12-04T01:33:52;19.92;;;16.83;;
4547;SDS011;2286;51.570;7.090;2023-12-04T01:36:19;19.80;;;16.60;;
4547;SDS011;2286;51.570;7.090;2023-12-04T01:38:46;17.83;;;14.90;;
4547;SDS011;2286;51.570;7.090;2023-12-04T01:41:13;19.98;;;16.10;;
4547;SDS011;2286;51.570;7.090;2023-12-04T01:43:41;17.73;;;15.10;;
4547;SDS011;2286;51.570;7.090;2023-12-04T01:46:08;17.40;;;15.23;;
4547;SDS011;2286;51.570;7.090;2023-12-04T01:48:35;21.17;;;15.50;;
4547;SDS011;2286;51.570;7.090;2023-12-04T01:51:04;19.23;;;15.77;;
4547;SDS011;2286;51.570;7.090;2023-12-04T01:53:34;20.52;;;14.82;;
4547;SDS011;2286;51.570;7.090;2023-12-04T01:56:02;21.73;;;15.63;;
4547;SDS011;2286;51.570;7.090;2023-12-04T01:58:30;20.45;;;15.70;;
4547;SDS011;2286;51.570;7.090;2023-12-04T02:00:58;19.52;;;15.98;;
4547;SDS011;2286;51.570;7.090;2023-12-04T02:03:25;18.63;;;15.35;;
4547;SDS011;2286;51.570;7.090;2023-12-04T02:05:52;21.50;;;15.60;;
4547;SDS011;2286;51.570;7.090;2023-12-04T02:08:19;20.10;;;15.57;;
4547;SDS011;2286;51.570;7.090;2023-12-04T02:10:46;18.90;;;15.43;;
4547;SDS011;2286;51.570;7.090;2023-12-04T02:13:14;19.90;;;15.27;;
4547;SDS011;2286;51.570;7.090;2023-12-04T02:15:41;18.20;;;15.20;;
4547;SDS011;2286;51.570;7.090;2023-12-04T02:18:09;18.88;;;15.10;;
4547;SDS011;2286;51.570;7.090;2023-12-04T02:20:36;18.55;;;15.90;;
4547;SDS011;2286;51.570;7.090;2023-12-04T02:23:03;19.40;;;15.65;;
4547;SDS011;2286;51.570;7.090;2023-12-04T02:25:31;18.58;;;15.10;;
4547;SDS011;2286;51.570;7.090;2023-12-04T02:27:58;18.20;;;15.10;;
4547;SDS011;2286;51.570;7.090;2023-12-04T02:30:28;22.45;;;15.38;;
4547;SDS011;2286;51.570;7.090;2023-12-04T02:32:57;17.58;;;14.40;;
4547;SDS011;2286;51.570;7.090;2023-12-04T02:35:26;19.25;;;14.40;;
4547;SDS011;2286;51.570;7.090;2023-12-04T02:37:57;16.10;;;14.30;;
4547;SDS011;2286;51.570;7.090;2023-12-04T02:40:24;16.00;;;14.02;;
4547;SDS011;2286;51.570;7.090;2023-12-04T02:42:53;16.50;;;13.20;;
4547;SDS011;2286;51.570;7.090;2023-12-04T02:45:20;15.82;;;14.02;;
4547;SDS011;2286;51.570;7.090;2023-12-04T02:47:46;17.77;;;13.73;;
4547;SDS011;2286;51.570;7.090;2023-12-04T02:50:13;15.60;;;13.88;;
4547;SDS011;2286;51.570;7.090;2023-12-04T02:52:40;19.83;;;13.15;;
4547;SDS011;2286;51.570;7.090;2023-12-04T02:55:07;14.60;;;13.10;;
4547;SDS011;2286;51.570;7.090;2023-12-04T02:57:34;15.65;;;11.57;;
4547;SDS011;2286;51.570;7.090;2023-12-04T03:00:02;14.23;;;12.57;;
4547;SDS011;2286;51.570;7.090;2023-12-04T03:02:30;13.30;;;11.57;;
4547;SDS011;2286;51.570;7.090;2023-12-04T03:04:57;13.30;;;11.55;;
4547;SDS011;2286;51.570;7.090;2023-12-04T03:07:24;14.77;;;11.70;;
4547;SDS011;2286;51.570;7.090;2023-12-04T03:09:51;13.77;;;11.90;;
4547;SDS011;2286;51.570;7.090;2023-12-04T03:12:18;17.58;;;13.15;;
4547;SDS011;2286;51.570;7.090;2023-12-04T03:14:45;14.38;;;12.05;;
4547;SDS011;2286;51.570;7.090;2023-12-04T03:17:13;13.43;;;10.70;;
4547;SDS011;2286;51.570;7.090;2023-12-04T03:19:40;15.57;;;11.88;;
4547;SDS011;2286;51.570;7.090;2023-12-04T03:22:06;14.73;;;12.55;;
4547;SDS011;2286;51.570;7.090;2023-12-04T03:24:33;13.55;;;11.70;;
4547;SDS011;2286;51.570;7.090;2023-12-04T03:27:00;13.23;;;11.68;;
4547;SDS011;2286;51.570;7.090;2023-12-04T03:29:27;12.50;;;10.93;;
4547;SDS011;2286;51.570;7.090;2023-12-04T03:31:54;12.50;;;11.20;;
4547;SDS011;2286;51.570;7.090;2023-12-04T03:34:22;13.50;;;10.90;;
4547;SDS011;2286;51.570;7.090;2023-12-04T03:36:48;13.15;;;11.10;;
4547;SDS011;2286;51.570;7.090;2023-12-04T03:39:15;12.70;;;11.40;;
4547;SDS011;2286;51.570;7.090;2023-12-04T03:41:42;12.88;;;10.82;;
4547;SDS011;2286;51.570;7.090;2023-12-04T03:44:10;12.73;;;10.35;;
4547;SDS011;2286;51.570;7.090;2023-12-04T03:46:36;12.57;;;11.27;;
4547;SDS011;2286;51.570;7.090;2023-12-04T03:49:04;16.08;;;12.30;;
4547;SDS011;2286;51.570;7.090;2023-12-04T03:51:33;12.38;;;10.02;;
4547;SDS011;2286;51.570;7.090;2023-12-04T03:54:00;14.75;;;10.93;;
4547;SDS011;2286;51.570;7.090;2023-12-04T03:56:27;11.40;;;10.23;;
4547;SDS011;2286;51.570;7.090;2023-12-04T03:58:54;13.13;;;11.32;;
4547;SDS011;2286;51.570;7.090;2023-12-04T04:01:21;12.07;;;10.75;;
4547;SDS011;2286;51.570;7.090;2023-12-04T04:03:48;12.95;;;10.40;;
4547;SDS011;2286;51.570;7.090;2023-12-04T04:06:15;14.55;;;12.40;;
4547;SDS011;2286;51.570;7.090;2023-12-04T04:08:43;13.23;;;10.98;;
4547;SDS011;2286;51.570;7.090;2023-12-04T04:11:10;12.70;;;10.30;;
4547;SDS011;2286;51.570;7.090;2023-12-04T04:13:37;17.88;;;11.45;;
4547;SDS011;2286;51.570;7.090;2023-12-04T04:16:04;14.35;;;10.63;;
4547;SDS011;2286;51.570;7.090;2023-12-04T04:18:31;13.45;;;10.93;;
4547;SDS011;2286;51.570;7.090;2023-12-04T04:20:58;12.60;;;10.75;;
4547;SDS011;2286;51.570;7.090;2023-12-04T04:23:24;11.70;;;9.68;;
4547;SDS011;2286;51.570;7.090;2023-12-04T04:25:53;10.48;;;9.20;;
4547;SDS011;2286;51.570;7.090;2023-12-04T04:28:19;9.85;;;8.90;;
4547;SDS011;2286;51.570;7.090;2023-12-04T04:30:46;10.52;;;8.75;;
4547;SDS011;2286;51.570;7.090;2023-12-04T04:33:13;10.85;;;8.40;;
4547;SDS011;2286;51.570;7.090;2023-12-04T04:35:42;11.18;;;8.40;;
4547;SDS011;2286;51.570;7.090;2023-12-04T04:38:09;9.07;;;8.18;;
4547;SDS011;2286;51.570;7.090;2023-12-04T04:40:36;8.25;;;7.38;;
4547;SDS011;2286;51.570;7.090;2023-12-04T04:43:08;9.52;;;8.50;;
4547;SDS011;2286;51.570;7.090;2023-12-04T04:45:36;9.82;;;8.18;;
4547;SDS011;2286;51.570;7.090;2023-12-04T04:48:03;10.40;;;7.95;;
4547;SDS011;2286;51.570;7.090;2023-12-04T04:50:30;9.30;;;8.07;;
4547;SDS011;2286;51.570;7.090;2023-12-04T04:52:57;8.98;;;7.93;;
4547;SDS011;2286;51.570;7.090;2023-12-04T04:55:24;9.98;;;7.80;;
4547;SDS011;2286;51.570;7.090;2023-12-04T04:57:51;10.52;;;8.43;;
4547;SDS011;2286;51.570;7.090;2023-12-04T05:00:19;8.80;;;7.95;;
4547;SDS011;2286;51.570;7.090;2023-12-04T05:02:46;10.95;;;9.10;;
4547;SDS011;2286;51.570;7.090;2023-12-04T05:05:13;8.80;;;7.45;;
4547;SDS011;2286;51.570;7.090;2023-12-04T05:07:40;10.45;;;8.35;;
4547;SDS011;2286;51.570;7.090;2023-12-04T05:10:07;8.82;;;7.50;;
4547;SDS011;2286;51.570;7.090;2023-12-04T05:12:34;8.00;;;6.88;;
4547;SDS011;2286;51.570;7.090;2023-12-04T05:15:01;7.93;;;6.95;;
4547;SDS011;2286;51.570;7.090;2023-12-04T05:17:30;8.63;;;7.18;;
4547;SDS011;2286;51.570;7.090;2023-12-04T05:19:57;9.43;;;7.30;;
4547;SDS011;2286;51.570;7.090;2023-12-04T05:22:24;8.23;;;6.97;;
4547;SDS011;2286;51.570;7.090;2023-12-04T05:24:52;9.32;;;7.70;;
4547;SDS011;2286;51.570;7.090;2023-12-04T05:27:19;8.50;;;7.63;;
4547;SDS011;2286;51.570;7.090;2023-12-04T05:29:46;9.18;;;7.50;;
4547;SDS011;2286;51.570;7.090;2023-12-04T05:32:13;7.93;;;7.13;;
4547;SDS011;2286;51.570;7.090;2023-12-04T05:34:41;9.23;;;7.70;;
4547;SDS011;2286;51.570;7.090;2023-12-04T05:37:08;6.53;;;5.93;;
4547;SDS011;2286;51.570;7.090;2023-12-04T05:39:35;8.70;;;7.18;;
4547;SDS011;2286;51.570;7.090;2023-12-04T05:42:02;8.43;;;7.53;;
4547;SDS011;2286;51.570;7.090;2023-12-04T05:44:30;8.30;;;7.50;;
4547;SDS011;2286;51.570;7.090;2023-12-04T05:46:56;8.23;;;7.32;;
4547;SDS011;2286;51.570;7.090;2023-12-04T05:49:23;7.22;;;5.93;;
4547;SDS011;2286;51.570;7.090;2023-12-04T05:51:51;7.03;;;5.82;;
4547;SDS011;2286;51.570;7.090;2023-12-04T05:54:18;6.78;;;6.07;;
4547;SDS011;2286;51.570;7.090;2023-12-04T05:56:44;7.70;;;6.90;;
4547;SDS011;2286;51.570;7.090;2023-12-04T05:59:11;9.18;;;7.15;;
4547;SDS011;2286;51.570;7.090;2023-12-04T06:01:38;7.35;;;6.32;;
4547;SDS011;2286;51.570;7.090;2023-12-04T06:04:05;9.05;;;7.20;;
4547;SDS011;2286;51.570;7.090;2023-12-04T06:06:32;7.40;;;6.70;;
4547;SDS011;2286;51.570;7.090;2023-12-04T06:09:00;8.85;;;7.13;;
4547;SDS011;2286;51.570;7.090;2023-12-04T06:11:27;8.27;;;7.47;;
4547;SDS011;2286;51.570;7.090;2023-12-04T06:13:54;7.45;;;6.25;;
4547;SDS011;2286;51.570;7.090;2023-12-04T06:16:21;6.97;;;6.38;;
4547;SDS011;2286;51.570;7.090;2023-12-04T06:18:48;7.80;;;7.00;;
4547;SDS011;2286;51.570;7.090;2023-12-04T06:21:14;8.13;;;7.32;;
4547;SDS011;2286;51.570;7.090;2023-12-04T06:23:41;7.55;;;6.85;;
4547;SDS011;2286;51.570;7.090;2023-12-04T06:26:12;9.68;;;7.03;;
4547;SDS011;2286;51.570;7.090;2023-12-04T06:28:39;7.70;;;6.90;;
4547;SDS011;2286;51.570;7.090;2023-12-04T06:31:07;8.40;;;7.35;;
4547;SDS011;2286;51.570;7.090;2023-12-04T06:33:35;10.35;;;7.05;;
4547;SDS011;2286;51.570;7.090;2023-12-04T06:36:03;11.30;;;8.15;;
4547;SDS011;2286;51.570;7.090;2023-12-04T06:38:32;9.10;;;8.18;;
4547;SDS011;2286;51.570;7.090;2023-12-04T06:41:02;8.95;;;7.95;;
4547;SDS011;2286;51.570;7.090;2023-12-04T06:43:31;8.50;;;6.93;;
4547;SDS011;2286;51.570;7.090;2023-12-04T06:45:58;7.80;;;7.00;;
4547;SDS011;2286;51.570;7.090;2023-12-04T06:48:25;7.55;;;6.85;;
4547;SDS011;2286;51.570;7.090;2023-12-04T06:50:52;8.18;;;6.95;;
4547;SDS011;2286;51.570;7.090;2023-12-04T06:53:19;8.55;;;7.55;;
4547;SDS011;2286;51.570;7.090;2023-12-04T06:55:46;7.55;;;6.80;;
4547;SDS011;2286;51.570;7.090;2023-12-04T06:58:13;9.23;;;7.78;;
4547;SDS011;2286;51.570;7.090;2023-12-04T07:00:41;10.07;;;7.80;;
4547;SDS011;2286;51.570;7.090;2023-12-04T07:03:08;7.80;;;7.00;;
4547;SDS011;2286;51.570;7.090;2023-12-04T07:05:35;7.18;;;6.47;;
4547;SDS011;2286;51.570;7.090;2023-12-04T07:08:02;8.20;;;7.22;;
4547;SDS011;2286;51.570;7.090;2023-12-04T07:10:29;7.53;;;6.70;;
4547;SDS011;2286;51.570;7.090;2023-12-04T07:12:56;12.77;;;7.85;;
4547;SDS011;2286;51.570;7.090;2023-12-04T07:15:23;8.20;;;7.40;;
4547;SDS011;2286;51.570;7.090;2023-12-04T07:17:51;7.47;;;6.75;;
4547;SDS011;2286;51.570;7.090;2023-12-04T07:20:18;8.25;;;7.45;;
4547;SDS011;2286;51.570;7.090;2023-12-04T07:22:45;9.68;;;6.90;;
4547;SDS011;2286;51.570;7.090;2023-12-04T07:25:12;8.80;;;7.43;;
4547;SDS011;2286;51.570;7.090;2023-12-04T07:27:39;9.45;;;8.02;;
4547;SDS011;2286;51.570;7.090;2023-12-04T07:30:06;9.60;;;8.07;;
4547;SDS011;2286;51.570;7.090;2023-12-04T07:32:34;8.13;;;7.35;;
4547;SDS011;2286;51.570;7.090;2023-12-04T07:35:02;8.10;;;7.05;;
4547;SDS011;2286;51.570;7.090;2023-12-04T07:37:29;9.07;;;6.35;;
4547;SDS011;2286;51.570;7.090;2023-12-04T07:39:57;12.40;;;7.00;;
4547;SDS011;2286;51.570;7.090;2023-12-04T07:42:24;10.10;;;6.93;;
4547;SDS011;2286;51.570;7.090;2023-12-04T07:44:51;7.28;;;6.30;;
4547;SDS011;2286;51.570;7.090;2023-12-04T07:47:17;6.95;;;6.25;;
4547;SDS011;2286;51.570;7.090;2023-12-04T07:49:44;7.00;;;6.30;;
4547;SDS011;2286;51.570;7.090;2023-12-04T07:52:13;8.15;;;6.30;;
4547;SDS011;2286;51.570;7.090;2023-12-04T07:54:39;7.60;;;6.63;;
4547;SDS011;2286;51.570;7.090;2023-12-04T07:57:06;6.40;;;5.80;;
4547;SDS011;2286;51.570;7.090;2023-12-04T07:59:33;7.45;;;6.15;;
4547;SDS011;2286;51.570;7.090;2023-12-04T08:02:00;6.05;;;5.38;;
4547;SDS011;2286;51.570;7.090;2023-12-04T08:04:27;7.43;;;5.90;;
4547;SDS011;2286;51.570;7.090;2023-12-04T08:06:54;7.40;;;5.50;;
4547;SDS011;2286;51.570;7.090;2023-12-04T08:09:22;7.53;;;5.95;;
4547;SDS011;2286;51.570;7.090;2023-12-04T08:11:50;6.22;;;5.63;;
4547;SDS011;2286;51.570;7.090;2023-12-04T08:14:17;6.60;;;5.80;;
4547;SDS011;2286;51.570;7.090;2023-12-04T08:16:44;6.40;;;5.80;;
4547;SDS011;2286;51.570;7.090;2023-12-04T08:19:11;6.55;;;5.93;;
4547;SDS011;2286;51.570;7.090;2023-12-04T08:21:37;6.30;;;5.70;;
4547;SDS011;2286;51.570;7.090;2023-12-04T08:24:05;7.00;;;6.15;;
4547;SDS011;2286;51.570;7.090;2023-12-04T08:26:33;7.70;;;5.85;;
4547;SDS011;2286;51.570;7.090;2023-12-04T08:29:01;7.50;;;5.85;;
4547;SDS011;2286;51.570;7.090;2023-12-04T08:31:28;7.25;;;6.45;;
4547;SDS011;2286;51.570;7.090;2023-12-04T08:33:55;10.95;;;6.38;;
4547;SDS011;2286;51.570;7.090;2023-12-04T08:36:22;9.35;;;6.47;;
4547;SDS011;2286;51.570;7.090;2023-12-04T08:38:49;7.75;;;6.03;;
4547;SDS011;2286;51.570;7.090;2023-12-04T08:41:16;7.55;;;6.75;;
4547;SDS011;2286;51.570;7.090;2023-12-04T08:43:44;6.90;;;6.20;;
4547;SDS011;2286;51.570;7.090;2023-12-04T08:46:11;7.22;;;6.00;;
4547;SDS011;2286;51.570;7.090;2023-12-04T08:48:38;6.80;;;6.13;;
4547;SDS011;2286;51.570;7.090;2023-12-04T08:51:05;8.90;;;6.47;;
4547;SDS011;2286;51.570;7.090;2023-12-04T08:53:33;8.40;;;5.53;;
4547;SDS011;2286;51.570;7.090;2023-12-04T08:56:00;7.28;;;5.78;;
4547;SDS011;2286;51.570;7.090;2023-12-04T08:58:28;7.88;;;5.82;;
4547;SDS011;2286;51.570;7.090;2023-12-04T09:00:56;6.82;;;5.78;;
4547;SDS011;2286;51.570;7.090;2023-12-04T09:03:23;6.55;;;5.30;;
4547;SDS011;2286;51.570;7.090;2023-12-04T09:05:50;7.32;;;5.90;;
4547;SDS011;2286;51.570;7.090;2023-12-04T09:08:17;6.85;;;6.15;;
4547;SDS011;2286;51.570;7.090;2023-12-04T09:10:44;6.32;;;5.72;;
4547;SDS011;2286;51.570;7.090;2023-12-04T09:13:12;6.32;;;5.57;;
4547;SDS011;2286;51.570;7.090;2023-12-04T09:15:39;6.10;;;5.47;;
4547;SDS011;2286;51.570;7.090;2023-12-04T09:18:08;6.40;;;5.80;;
4547;SDS011;2286;51.570;7.090;2023-12-04T09:20:35;6.68;;;5.80;;
4547;SDS011;2286;51.570;7.090;2023-12-04T09:23:02;6.43;;;5.82;;
4547;SDS011;2286;51.570;7.090;2023-12-04T09:25:28;6.30;;;5.32;;
4547;SDS011;2286;51.570;7.090;2023-12-04T09:27:55;8.70;;;6.05;;
4547;SDS011;2286;51.570;7.090;2023-12-04T09:30:22;7.28;;;6.60;;
4547;SDS011;2286;51.570;7.090;2023-12-04T09:32:49;6.80;;;6.10;;
4547;SDS011;2286;51.570;7.090;2023-12-04T09:35:17;6.35;;;5.75;;
4547;SDS011;2286;51.570;7.090;2023-12-04T09:37:44;6.80;;;6.10;;
4547;SDS011;2286;51.570;7.090;2023-12-04T09:40:14;7.60;;;5.88;;
4547;SDS011;2286;51.570;7.090;2023-12-04T09:42:41;6.63;;;5.55;;
4547;SDS011;2286;51.570;7.090;2023-12-04T09:45:08;9.18;;;6.13;;
4547;SDS011;2286;51.570;7.090;2023-12-04T09:47:35;6.85;;;5.97;;
4547;SDS011;2286;51.570;7.090;2023-12-04T09:50:03;8.60;;;6.20;;
4547;SDS011;2286;51.570;7.090;2023-12-04T09:52:33;7.35;;;6.10;;
4547;SDS011;2286;51.570;7.090;2023-12-04T09:55:01;8.15;;;6.00;;
4547;SDS011;2286;51.570;7.090;2023-12-04T09:57:28;9.20;;;5.95;;
4547;SDS011;2286;51.570;7.090;2023-12-04T09:59:56;15.18;;;6.43;;
4547;SDS011;2286;51.570;7.090;2023-12-04T10:02:26;7.20;;;5.60;;
4547;SDS011;2286;51.570;7.090;2023-12-04T10:04:53;8.90;;;5.45;;
4547;SDS011;2286;51.570;7.090;2023-12-04T10:07:20;9.38;;;5.70;;
4547;SDS011;2286;51.570;7.090;2023-12-04T10:09:48;9.82;;;5.25;;
4547;SDS011;2286;51.570;7.090;2023-12-04T10:12:18;6.28;;;5.25;;
4547;SDS011;2286;51.570;7.090;2023-12-04T10:14:50;7.05;;;5.65;;
4547;SDS011;2286;51.570;7.090;2023-12-04T10:17:32;8.60;;;5.57;;
4547;SDS011;2286;51.570;7.090;2023-12-04T10:20:03;9.88;;;4.85;;
4547;SDS011;2286;51.570;7.090;2023-12-04T10:22:36;5.50;;;4.57;;
4547;SDS011;2286;51.570;7.090;2023-12-04T10:25:11;5.23;;;4.73;;
4547;SDS011;2286;51.570;7.090;2023-12-04T10:27:40;5.88;;;5.25;;
4547;SDS011;2286;51.570;7.090;2023-12-04T10:30:09;5.15;;;4.70;;
4547;SDS011;2286;51.570;7.090;2023-12-04T10:32:38;10.25;;;5.40;;
4547;SDS011;2286;51.570;7.090;2023-12-04T10:35:07;5.45;;;4.95;;
4547;SDS011;2286;51.570;7.090;2023-12-04T10:37:36;9.20;;;5.40;;
4547;SDS011;2286;51.570;7.090;2023-12-04T10:40:03;5.40;;;4.90;;
4547;SDS011;2286;51.570;7.090;2023-12-04T10:42:35;5.38;;;4.75;;
4547;SDS011;2286;51.570;7.090;2023-12-04T10:45:02;4.97;;;4.45;;
4547;SDS011;2286;51.570;7.090;2023-12-04T10:47:31;4.50;;;4.10;;
4547;SDS011;2286;51.570;7.090;2023-12-04T10:50:01;5.40;;;4.20;;
4547;SDS011;2286;51.570;7.090;2023-12-04T10:52:29;4.88;;;4.30;;
4547;SDS011;2286;51.570;7.090;2023-12-04T10:54:58;5.30;;;4.68;;
4547;SDS011;2286;51.570;7.090;2023-12-04T10:57:26;5.07;;;4.47;;
4547;SDS011;2286;51.570;7.090;2023-12-04T10:59:57;5.00;;;4.50;;
4547;SDS011;2286;51.570;7.090;2023-12-04T11:02:28;6.88;;;4.15;;
4547;SDS011;2286;51.570;7.090;2023-12-04T11:05:01;9.27;;;4.30;;
4547;SDS011;2286;51.570;7.090;2023-12-04T11:07:38;5.18;;;4.78;;
4547;SDS011;2286;51.570;7.090;2023-12-04T11:10:07;6.03;;;5.03;;
4547;SDS011;2286;51.570;7.090;2023-12-04T11:12:35;5.32;;;4.82;;
4547;SDS011;2286;51.570;7.090;2023-12-04T11:15:11;5.45;;;4.85;;
4547;SDS011;2286;51.570;7.090;2023-12-04T11:17:42;7.60;;;5.35;;
4547;SDS011;2286;51.570;7.090;2023-12-04T11:20:13;6.15;;;5.55;;
4547;SDS011;2286;51.570;7.090;2023-12-04T11:22:45;5.85;;;5.25;;
4547;SDS011;2286;51.570;7.090;2023-12-04T11:25:13;6.00;;;5.40;;
4547;SDS011;2286;51.570;7.090;2023-12-04T11:27:41;8.70;;;5.30;;
4547;SDS011;2286;51.570;7.090;2023-12-04T11:30:09;5.95;;;5.18;;
4547;SDS011;2286;51.570;7.090;2023-12-04T11:32:45;8.85;;;5.95;;
4547;SDS011;2286;51.570;7.090;2023-12-04T11:35:14;6.37;;;5.20;;
4547;SDS011;2286;51.570;7.090;2023-12-04T11:37:43;7.35;;;6.38;;
4547;SDS011;2286;51.570;7.090;2023-12-04T11:40:11;6.80;;;5.50;;
4547;SDS011;2286;51.570;7.090;2023-12-04T11:42:39;5.50;;;5.00;;
4547;SDS011;2286;51.570;7.090;2023-12-04T11:45:06;7.87;;;6.20;;
4547;SDS011;2286;51.570;7.090;2023-12-04T11:50:27;9.38;;;6.65;;
4547;SDS011;2286;51.570;7.090;2023-12-04T11:52:55;7.40;;;5.60;;
4547;SDS011;2286;51.570;7.090;2023-12-04T11:55:23;10.10;;;5.90;;
4547;SDS011;2286;51.570;7.090;2023-12-04T11:57:54;9.07;;;6.30;;
4547;SDS011;2286;51.570;7.090;2023-12-04T12:00:23;6.25;;;5.68;;
4547;SDS011;2286;51.570;7.090;2023-12-04T12:03:03;7.95;;;6.80;;
4547;SDS011;2286;51.570;7.090;2023-12-04T12:05:33;7.50;;;5.60;;
4547;SDS011;2286;51.570;7.090;2023-12-04T12:08:01;7.70;;;6.25;;
4547;SDS011;2286;51.570;7.090;2023-12-04T12:10:29;6.47;;;5.88;;
4547;SDS011;2286;51.570;7.090;2023-12-04T12:12:56;7.47;;;6.50;;
4547;SDS011;2286;51.570;7.090;2023-12-04T12:15:23;7.28;;;6.57;;
4547;SDS011;2286;51.570;7.090;2023-12-04T12:17:50;7.57;;;6.20;;
4547;SDS011;2286;51.570;7.090;2023-12-04T12:20:17;8.15;;;6.75;;
4547;SDS011;2286;51.570;7.090;2023-12-04T12:22:47;9.10;;;7.37;;
4547;SDS011;2286;51.570;7.090;2023-12-04T12:25:15;7.25;;;6.03;;
4547;SDS011;2286;51.570;7.090;2023-12-04T12:27:43;7.45;;;6.75;;
4547;SDS011;2286;51.570;7.090;2023-12-04T12:30:11;7.22;;;6.30;;
4547;SDS011;2286;51.570;7.090;2023-12-04T12:32:38;9.60;;;7.43;;
4547;SDS011;2286;51.570;7.090;2023-12-04T12:35:05;8.70;;;7.28;;
4547;SDS011;2286;51.570;7.090;2023-12-04T12:37:33;8.13;;;6.70;;
4547;SDS011;2286;51.570;7.090;2023-12-04T12:40:02;7.60;;;6.75;;
4547;SDS011;2286;51.570;7.090;2023-12-04T12:42:30;11.25;;;7.75;;
4547;SDS011;2286;51.570;7.090;2023-12-04T12:44:59;7.90;;;7.15;;
4547;SDS011;2286;51.570;7.090;2023-12-04T12:47:29;8.13;;;7.32;;
4547;SDS011;2286;51.570;7.090;2023-12-04T12:49:56;7.70;;;6.90;;
4547;SDS011;2286;51.570;7.090;2023-12-04T12:52:23;7.35;;;6.55;;
4547;SDS011;2286;51.570;7.090;2023-12-04T12:54:49;8.32;;;7.53;;
4547;SDS011;2286;51.570;7.090;2023-12-04T12:57:19;7.78;;;6.68;;
4547;SDS011;2286;51.570;7.090;2023-12-04T12:59:46;9.35;;;7.70;;
4547;SDS011;2286;51.570;7.090;2023-12-04T13:02:13;7.72;;;7.05;;
4547;SDS011;2286;51.570;7.090;2023-12-04T13:04:41;8.95;;;7.88;;
4547;SDS011;2286;51.570;7.090;2023-12-04T13:07:09;8.32;;;7.53;;
4547;SDS011;2286;51.570;7.090;2023-12-04T13:09:36;9.73;;;7.00;;
4547;SDS011;2286;51.570;7.090;2023-12-04T13:12:04;7.15;;;6.50;;
4547;SDS011;2286;51.570;7.090;2023-12-04T13:14:33;7.40;;;6.70;;
4547;SDS011;2286;51.570;7.090;2023-12-04T13:17:01;7.22;;;6.57;;
4547;SDS011;2286;51.570;7.090;2023-12-04T13:19:27;7.88;;;7.07;;
4547;SDS011;2286;51.570;7.090;2023-12-04T13:21:56;7.05;;;6.35;;
4547;SDS011;2286;51.570;7.090;2023-12-04T13:24:23;9.10;;;8.20;;
4547;SDS011;2286;51.570;7.090;2023-12-04T13:26:50;9.38;;;8.38;;
4547;SDS011;2286;51.570;7.090;2023-12-04T13:29:18;9.63;;;7.55;;
4547;SDS011;2286;51.570;7.090;2023-12-04T13:31:46;10.52;;;7.63;;
4547;SDS011;2286;51.570;7.090;2023-12-04T13:34:15;8.93;;;8.02;;
4547;SDS011;2286;51.570;7.090;2023-12-04T13:36:42;8.73;;;7.88;;
4547;SDS011;2286;51.570;7.090;2023-12-04T13:39:09;9.25;;;8.25;;
4547;SDS011;2286;51.570;7.090;2023-12-04T13:41:41;8.43;;;7.63;;
4547;SDS011;2286;51.570;7.090;2023-12-04T13:44:27;9.00;;;8.10;;
4547;SDS011;2286;51.570;7.090;2023-12-04T13:46:56;9.10;;;8.18;;
4547;SDS011;2286;51.570;7.090;2023-12-04T13:49:22;9.63;;;8.45;;
4547;SDS011;2286;51.570;7.090;2023-12-04T13:51:49;10.40;;;8.45;;
4547;SDS011;2286;51.570;7.090;2023-12-04T13:54:18;9.02;;;8.13;;
4547;SDS011;2286;51.570;7.090;2023-12-04T13:56:47;8.60;;;7.68;;
4547;SDS011;2286;51.570;7.090;2023-12-04T13:59:19;7.90;;;7.20;;
4547;SDS011;2286;51.570;7.090;2023-12-04T14:01:46;7.85;;;7.13;;
4547;SDS011;2286;51.570;7.090;2023-12-04T14:04:16;8.30;;;7.50;;
4547;SDS011;2286;51.570;7.090;2023-12-04T14:06:44;8.20;;;7.38;;
4547;SDS011;2286;51.570;7.090;2023-12-04T14:09:11;6.88;;;6.28;;
4547;SDS011;2286;51.570;7.090;2023-12-04T14:11:41;7.53;;;6.82;;
4547;SDS011;2286;51.570;7.090;2023-12-04T14:14:10;7.68;;;6.53;;
4547;SDS011;2286;51.570;7.090;2023-12-04T14:16:38;7.30;;;6.50;;
4547;SDS011;2286;51.570;7.090;2023-12-04T14:19:04;10.13;;;7.55;;
4547;SDS011;2286;51.570;7.090;2023-12-04T14:21:33;8.90;;;6.65;;
4547;SDS011;2286;51.570;7.090;2023-12-04T14:24:00;8.07;;;7.30;;
4547;SDS011;2286;51.570;7.090;2023-12-04T14:26:27;7.82;;;7.10;;
4547;SDS011;2286;51.570;7.090;2023-12-04T14:28:54;7.63;;;6.47;;
4547;SDS011;2286;51.570;7.090;2023-12-04T14:31:22;7.20;;;6.55;;
4547;SDS011;2286;51.570;7.090;2023-12-04T14:33:49;6.43;;;5.82;;
4547;SDS011;2286;51.570;7.090;2023-12-04T14:36:18;7.07;;;6.38;;
4547;SDS011;2286;51.570;7.090;2023-12-04T14:38:46;7.47;;;6.22;;
4547;SDS011;2286;51.570;7.090;2023-12-04T14:41:13;6.85;;;6.25;;
4547;SDS011;2286;51.570;7.090;2023-12-04T14:43:40;6.93;;;6.32;;
4547;SDS011;2286;51.570;7.090;2023-12-04T14:46:07;7.05;;;6.35;;
4547;SDS011;2286;51.570;7.090;2023-12-04T14:48:36;7.20;;;6.50;;
4547;SDS011;2286;51.570;7.090;2023-12-04T14:51:04;6.28;;;5.70;;
4547;SDS011;2286;51.570;7.090;2023-12-04T14:53:31;7.25;;;5.95;;
4547;SDS011;2286;51.570;7.090;2023-12-04T14:56:10;7.07;;;6.43;;
4547;SDS011;2286;51.570;7.090;2023-12-04T14:58:51;7.15;;;6.45;;
4547;SDS011;2286;51.570;7.090;2023-12-04T15:01:44;6.70;;;6.10;;
4547;SDS011;2286;51.570;7.090;2023-12-04T15:04:36;6.70;;;5.93;;
4547;SDS011;2286;51.570;7.090;2023-12-04T15:07:39;6.32;;;5.53;;
4547;SDS011;2286;51.570;7.090;2023-12-04T15:10:28;6.60;;;6.00;;
4547;SDS011;2286;51.570;7.090;2023-12-04T15:13:10;6.03;;;5.50;;
4547;SDS011;2286;51.570;7.090;2023-12-04T15:15:54;5.93;;;5.32;;